sensor_id;sensor_type;location;lat;lon;timestamp;pressure;altitude;pressure_sealevel;temperature;humidity
24962;BME280;12992;50.884;13.668;2024-03-02T00:00:02;96281.09;;;8.15;100.00
24962;BME280;12992;50.884;13.668;2024-03-02T00:02:43;96267.28;;;8.17;100.00
24962;BME280;12992;50.884;13.668;2024-03-02T00:05:17;96266.19;;;8.18;100.00
24962;BME280;12992;50.884;13.668;2024-03-02T00:07:44;96265.91;;;8.19;100.00
24962;BME280;12992;50.884;13.668;2024-03-02T00:10:11;96265.09;;;8.19;100.00
24962;BME280;12992;50.884;13.668;2024-03-02T00:12:37;96264.28;;;8.18;100.00
24962;BME280;12992;50.884;13.668;2024-03-02T00:17:41;96260.22;;;8.16;100.00
24962;BME280;12992;50.884;13.668;2024-03-02T00:20:09;96261.56;;;8.13;100.00
24962;BME280;12992;50.884;13.668;2024-03-02T00:22:35;96265.59;;;8.06;100.00
24962;BME280;12992;50.884;13.668;2024-03-02T00:25:03;96255.59;;;8.16;100.00
24962;BME280;12992;50.884;13.668;2024-03-02T00:27:28;96262.09;;;8.05;100.00
24962;BME280;12992;50.884;13.668;2024-03-02T00:29:54;96262.38;;;8.14;100.00
24962;BME280;12992;50.884;13.668;2024-03-02T00:32:19;96259.63;;;8.04;100.00
24962;BME280;12992;50.884;13.668;2024-03-02T00:34:44;96266.13;;;8.03;100.00
24962;BME280;12992;50.884;13.668;2024-03-02T00:37:10;96268.81;;;7.98;100.00
24962;BME280;12992;50.884;13.668;2024-03-02T00:39:37;96269.13;;;8.11;100.00
24962;BME280;12992;50.884;13.668;2024-03-02T00:42:02;96267.19;;;7.97;100.00
24962;BME280;12992;50.884;13.668;2024-03-02T00:44:28;96260.44;;;7.99;100.00
24962;BME280;12992;50.884;13.668;2024-03-02T00:46:59;96269.09;;;8.01;100.00
24962;BME280;12992;50.884;13.668;2024-03-02T00:49:25;96271.03;;;8.06;100.00
24962;BME280;12992;50.884;13.668;2024-03-02T00:51:53;96266.44;;;8.06;100.00
24962;BME280;12992;50.884;13.668;2024-03-02T00:54:20;96279.13;;;8.01;100.00
24962;BME280;12992;50.884;13.668;2024-03-02T00:56:47;96280.50;;;7.98;100.00
24962;BME280;12992;50.884;13.668;2024-03-02T00:59:13;96277.22;;;7.96;100.00
24962;BME280;12992;50.884;13.668;2024-03-02T01:01:38;96277.78;;;8.03;100.00
24962;BME280;12992;50.884;13.668;2024-03-02T01:04:03;96286.44;;;8.00;100.00
24962;BME280;12992;50.884;13.668;2024-03-02T01:06:30;96278.59;;;7.99;100.00
24962;BME280;12992;50.884;13.668;2024-03-02T01:08:55;96271.53;;;8.03;100.00
24962;BME280;12992;50.884;13.668;2024-03-02T01:11:20;96279.66;;;7.98;100.00
24962;BME280;12992;50.884;13.668;2024-03-02T01:13:47;96270.16;;;7.95;100.00
24962;BME280;12992;50.884;13.668;2024-03-02T01:16:13;96275.56;;;7.95;100.00
24962;BME280;12992;50.884;13.668;2024-03-02T01:18:38;96275.88;;;7.99;100.00
24962;BME280;12992;50.884;13.668;2024-03-02T01:21:03;96271.03;;;8.06;100.00
24962;BME280;12992;50.884;13.668;2024-03-02T01:23:29;96268.28;;;8.01;100.00
24962;BME280;12992;50.884;13.668;2024-03-02T01:25:54;96269.13;;;8.06;100.00
24962;BME280;12992;50.884;13.668;2024-03-02T01:28:20;96272.38;;;8.08;100.00
24962;BME280;12992;50.884;13.668;2024-03-02T01:30:46;96263.16;;;8.09;100.00
24962;BME280;12992;50.884;13.668;2024-03-02T01:33:11;96255.03;;;8.09;100.00
24962;BME280;12992;50.884;13.668;2024-03-02T01:35:36;96261.88;;;8.27;100.00
24962;BME280;12992;50.884;13.668;2024-03-02T01:38:02;96260.50;;;8.19;100.00
24962;BME280;12992;50.884;13.668;2024-03-02T01:40:28;96265.09;;;8.14;100.00
24962;BME280;12992;50.884;13.668;2024-03-02T01:42:53;96262.63;;;8.12;100.00
24962;BME280;12992;50.884;13.668;2024-03-02T01:45:19;96271.59;;;8.13;100.00
24962;BME280;12992;50.884;13.668;2024-03-02T01:47:45;96267.50;;;8.10;100.00
24962;BME280;12992;50.884;13.668;2024-03-02T01:50:11;96265.59;;;8.06;100.00
24962;BME280;12992;50.884;13.668;2024-03-02T01:52:36;96269.44;;;8.20;100.00
24962;BME280;12992;50.884;13.668;2024-03-02T01:55:02;96267.28;;;8.27;100.00
24962;BME280;12992;50.884;13.668;2024-03-02T01:57:27;96257.25;;;8.17;100.00
24962;BME280;12992;50.884;13.668;2024-03-02T01:59:53;96254.19;;;8.04;100.00
24962;BME280;12992;50.884;13.668;2024-03-02T02:02:19;96254.78;;;8.16;100.00
24962;BME280;12992;50.884;13.668;2024-03-02T02:04:45;96254.50;;;8.07;100.00
24962;BME280;12992;50.884;13.668;2024-03-02T02:07:10;96256.75;;;8.31;100.00
24962;BME280;12992;50.884;13.668;2024-03-02T02:09:36;96260.84;;;8.38;100.00
24962;BME280;12992;50.884;13.668;2024-03-02T02:12:01;96256.19;;;8.34;100.00
24962;BME280;12992;50.884;13.668;2024-03-02T02:14:27;96253.50;;;8.34;100.00
24962;BME280;12992;50.884;13.668;2024-03-02T02:16:53;96249.94;;;8.23;100.00
24962;BME280;12992;50.884;13.668;2024-03-02T02:19:19;96262.16;;;8.26;100.00
24962;BME280;12992;50.884;13.668;2024-03-02T02:21:44;96251.03;;;8.22;100.00
24962;BME280;12992;50.884;13.668;2024-03-02T02:24:10;96257.25;;;8.28;100.00
24962;BME280;12992;50.884;13.668;2024-03-02T02:26:35;96261.13;;;8.37;100.00
24962;BME280;12992;50.884;13.668;2024-03-02T02:29:00;96259.22;;;8.37;100.00
24962;BME280;12992;50.884;13.668;2024-03-02T02:31:26;96252.38;;;8.30;100.00
24962;BME280;12992;50.884;13.668;2024-03-02T02:33:51;96248.03;;;8.29;100.00
24962;BME280;12992;50.884;13.668;2024-03-02T02:36:16;96255.16;;;8.40;100.00
24962;BME280;12992;50.884;13.668;2024-03-02T02:38:44;96244.25;;;8.30;100.00
24962;BME280;12992;50.884;13.668;2024-03-02T02:41:12;96253.47;;;8.29;100.00
24962;BME280;12992;50.884;13.668;2024-03-02T02:43:38;96249.75;;;8.45;100.00
24962;BME280;12992;50.884;13.668;2024-03-02T02:46:05;96245.94;;;8.41;100.00
24962;BME280;12992;50.884;13.668;2024-03-02T02:48:30;96248.94;;;8.39;100.00
24962;BME280;12992;50.884;13.668;2024-03-02T02:50:55;96245.41;;;8.44;100.00
24962;BME280;12992;50.884;13.668;2024-03-02T02:53:20;96245.09;;;8.35;100.00
24962;BME280;12992;50.884;13.668;2024-03-02T02:55:46;96239.94;;;8.39;100.00
24962;BME280;12992;50.884;13.668;2024-03-02T02:58:11;96239.16;;;8.43;100.00
24962;BME280;12992;50.884;13.668;2024-03-02T03:00:36;96243.22;;;8.36;100.00
24962;BME280;12992;50.884;13.668;2024-03-02T03:03:02;96251.63;;;8.44;100.00
24962;BME280;12992;50.884;13.668;2024-03-02T03:05:27;96249.75;;;8.40;100.00
24962;BME280;12992;50.884;13.668;2024-03-02T03:07:53;96247.75;;;8.30;100.00
24962;BME280;12992;50.884;13.668;2024-03-02T03:10:18;96241.53;;;8.30;100.00
24962;BME280;12992;50.884;13.668;2024-03-02T03:12:43;96244.75;;;8.21;100.00
24962;BME280;12992;50.884;13.668;2024-03-02T03:15:09;96245.31;;;8.18;100.00
24962;BME280;12992;50.884;13.668;2024-03-02T03:17:35;96239.63;;;8.30;100.00
24962;BME280;12992;50.884;13.668;2024-03-02T03:20:01;96229.34;;;8.32;100.00
24962;BME280;12992;50.884;13.668;2024-03-02T03:22:26;96224.44;;;8.24;100.00
24962;BME280;12992;50.884;13.668;2024-03-02T03:24:52;96229.56;;;8.15;100.00
24962;BME280;12992;50.884;13.668;2024-03-02T03:27:17;96238.53;;;8.21;100.00
24962;BME280;12992;50.884;13.668;2024-03-02T03:29:43;96239.34;;;8.16;100.00
24962;BME280;12992;50.884;13.668;2024-03-02T03:32:08;96250.44;;;8.10;100.00
24962;BME280;12992;50.884;13.668;2024-03-02T03:34:34;96246.94;;;8.14;100.00
24962;BME280;12992;50.884;13.668;2024-03-02T03:36:59;96249.63;;;8.09;100.00
24962;BME280;12992;50.884;13.668;2024-03-02T03:39:25;96242.03;;;8.11;100.00
24962;BME280;12992;50.884;13.668;2024-03-02T03:41:50;96243.66;;;8.12;100.00
24962;BME280;12992;50.884;13.668;2024-03-02T03:44:16;96231.69;;;7.98;100.00
24962;BME280;12992;50.884;13.668;2024-03-02T03:46:41;96237.38;;;8.02;100.00
24962;BME280;12992;50.884;13.668;2024-03-02T03:49:07;96239.59;;;8.05;100.00
24962;BME280;12992;50.884;13.668;2024-03-02T03:51:33;96246.34;;;8.07;100.00
24962;BME280;12992;50.884;13.668;2024-03-02T03:53:58;96240.59;;;7.93;100.00
24962;BME280;12992;50.884;13.668;2024-03-02T03:56:24;96241.41;;;7.89;100.00
24962;BME280;12992;50.884;13.668;2024-03-02T03:58:49;96251.47;;;7.99;100.00
24962;BME280;12992;50.884;13.668;2024-03-02T04:01:14;96248.50;;;8.00;100.00
24962;BME280;12992;50.884;13.668;2024-03-02T04:03:40;96259.63;;;8.04;100.00
24962;BME280;12992;50.884;13.668;2024-03-02T04:06:05;96260.47;;;8.04;100.00
24962;BME280;12992;50.884;13.668;2024-03-02T04:08:30;96260.47;;;8.04;100.00
24962;BME280;12992;50.884;13.668;2024-03-02T04:10:56;96264.22;;;7.98;100.00
24962;BME280;12992;50.884;13.668;2024-03-02T04:13:21;96262.59;;;8.02;100.00
24962;BME280;12992;50.884;13.668;2024-03-02T04:15:47;96264.19;;;7.88;100.00
24962;BME280;12992;50.884;13.668;2024-03-02T04:18:12;96259.03;;;7.86;100.00
24962;BME280;12992;50.884;13.668;2024-03-02T04:20:37;96266.31;;;7.81;100.00
24962;BME280;12992;50.884;13.668;2024-03-02T04:23:03;96264.69;;;7.85;100.00
24962;BME280;12992;50.884;13.668;2024-03-02T04:25:28;96265.25;;;7.87;100.00
24962;BME280;12992;50.884;13.668;2024-03-02T04:27:53;96267.94;;;7.82;100.00
24962;BME280;12992;50.884;13.668;2024-03-02T04:30:19;96266.31;;;7.81;100.00
24962;BME280;12992;50.884;13.668;2024-03-02T04:32:44;96257.59;;;7.74;100.00
24962;BME280;12992;50.884;13.668;2024-03-02T04:35:14;96267.91;;;7.77;100.00
24962;BME280;12992;50.884;13.668;2024-03-02T04:37:39;96277.16;;;7.86;100.00
24962;BME280;12992;50.884;13.668;2024-03-02T04:40:05;96279.94;;;8.01;100.00
24962;BME280;12992;50.884;13.668;2024-03-02T04:42:34;96285.38;;;8.01;100.00
24962;BME280;12992;50.884;13.668;2024-03-02T04:45:00;96292.16;;;7.99;100.00
24962;BME280;12992;50.884;13.668;2024-03-02T04:47:25;96288.31;;;7.94;100.00
24962;BME280;12992;50.884;13.668;2024-03-02T04:49:50;96285.38;;;7.96;100.00
24962;BME280;12992;50.884;13.668;2024-03-02T04:52:16;96280.75;;;8.02;100.00
24962;BME280;12992;50.884;13.668;2024-03-02T04:54:42;96283.16;;;7.93;100.00
24962;BME280;12992;50.884;13.668;2024-03-02T04:57:26;96279.44;;;8.04;100.00
24962;BME280;12992;50.884;13.668;2024-03-02T04:59:51;96285.41;;;8.11;100.00
24962;BME280;12992;50.884;13.668;2024-03-02T05:02:17;96294.03;;;8.03;100.00
24962;BME280;12992;50.884;13.668;2024-03-02T05:04:42;96305.44;;;8.00;100.00
24962;BME280;12992;50.884;13.668;2024-03-02T05:07:07;96301.59;;;7.91;100.00
24962;BME280;12992;50.884;13.668;2024-03-02T05:09:33;96305.63;;;7.83;100.00
24962;BME280;12992;50.884;13.668;2024-03-02T05:11:58;96315.09;;;7.86;100.00
24962;BME280;12992;50.884;13.668;2024-03-02T05:14:40;96316.22;;;7.95;100.00
24962;BME280;12992;50.884;13.668;2024-03-02T05:17:06;96315.16;;;7.91;100.00
24962;BME280;12992;50.884;13.668;2024-03-02T05:19:31;96313.25;;;7.91;100.00
24962;BME280;12992;50.884;13.668;2024-03-02T05:21:56;96325.53;;;8.09;100.00
24962;BME280;12992;50.884;13.668;2024-03-02T05:24:21;96323.63;;;8.05;100.00
24962;BME280;12992;50.884;13.668;2024-03-02T05:26:47;96332.06;;;8.13;100.00
24962;BME280;12992;50.884;13.668;2024-03-02T05:29:12;96331.44;;;7.96;100.00
24962;BME280;12992;50.884;13.668;2024-03-02T05:31:37;96334.47;;;8.10;100.00
24962;BME280;12992;50.884;13.668;2024-03-02T05:34:03;96335.03;;;8.07;100.00
24962;BME280;12992;50.884;13.668;2024-03-02T05:36:28;96331.72;;;8.00;100.00
24962;BME280;12992;50.884;13.668;2024-03-02T05:38:54;96333.16;;;8.17;100.00
24962;BME280;12992;50.884;13.668;2024-03-02T05:41:19;96334.84;;;8.29;100.00
24962;BME280;12992;50.884;13.668;2024-03-02T05:43:44;96326.44;;;8.30;100.00
24962;BME280;12992;50.884;13.668;2024-03-02T05:46:10;96339.50;;;8.38;100.00
24962;BME280;12992;50.884;13.668;2024-03-02T05:48:35;96340.38;;;8.49;100.00
24962;BME280;12992;50.884;13.668;2024-03-02T05:51:00;96341.44;;;8.43;100.00
24962;BME280;12992;50.884;13.668;2024-03-02T05:53:26;96347.13;;;8.41;100.00
24962;BME280;12992;50.884;13.668;2024-03-02T05:55:51;96343.06;;;8.44;100.00
24962;BME280;12992;50.884;13.668;2024-03-02T05:58:20;96347.94;;;8.42;100.00
24962;BME280;12992;50.884;13.668;2024-03-02T06:00:56;96355.84;;;8.48;100.00
24962;BME280;12992;50.884;13.668;2024-03-02T06:03:22;96352.06;;;8.55;100.00
24962;BME280;12992;50.884;13.668;2024-03-02T06:05:47;96365.34;;;8.51;100.00
24962;BME280;12992;50.884;13.668;2024-03-02T06:08:14;96362.09;;;8.54;100.00
24962;BME280;12992;50.884;13.668;2024-03-02T06:10:39;96365.59;;;8.44;100.00
24962;BME280;12992;50.884;13.668;2024-03-02T06:13:05;96364.22;;;8.47;100.00
24962;BME280;12992;50.884;13.668;2024-03-02T06:15:30;96373.19;;;8.47;100.00
24962;BME280;12992;50.884;13.668;2024-03-02T06:17:56;96372.38;;;8.47;100.00
24962;BME280;12992;50.884;13.668;2024-03-02T06:20:21;96379.44;;;8.48;100.00
24962;BME280;12992;50.884;13.668;2024-03-02T06:22:46;96375.94;;;8.52;100.00
24962;BME280;12992;50.884;13.668;2024-03-02T06:25:12;96369.66;;;8.47;100.00
24962;BME280;12992;50.884;13.668;2024-03-02T06:27:38;96365.31;;;8.46;100.00
24962;BME280;12992;50.884;13.668;2024-03-02T06:30:04;96371.28;;;8.43;100.00
24962;BME280;12992;50.884;13.668;2024-03-02T06:32:29;96364.00;;;8.48;100.00
24962;BME280;12992;50.884;13.668;2024-03-02T06:34:54;96371.00;;;8.44;100.00
24962;BME280;12992;50.884;13.668;2024-03-02T06:37:20;96377.25;;;8.45;100.00
24962;BME280;12992;50.884;13.668;2024-03-02T06:39:45;96386.50;;;8.49;100.00
24962;BME280;12992;50.884;13.668;2024-03-02T06:42:10;96384.31;;;8.46;100.00
24962;BME280;12992;50.884;13.668;2024-03-02T06:44:36;96385.94;;;8.47;100.00
24962;BME280;12992;50.884;13.668;2024-03-02T06:47:01;96395.16;;;8.46;100.00
24962;BME280;12992;50.884;13.668;2024-03-02T06:49:26;96399.25;;;8.48;100.00
24962;BME280;12992;50.884;13.668;2024-03-02T06:51:52;96403.56;;;8.39;100.00
24962;BME280;12992;50.884;13.668;2024-03-02T06:54:17;96403.81;;;8.38;100.00
24962;BME280;12992;50.884;13.668;2024-03-02T06:56:42;96414.16;;;8.41;100.00
24962;BME280;12992;50.884;13.668;2024-03-02T06:59:08;96416.59;;;8.42;100.00
24962;BME280;12992;50.884;13.668;2024-03-02T07:01:33;96418.22;;;8.43;100.00
24962;BME280;12992;50.884;13.668;2024-03-02T07:03:58;96410.34;;;8.42;100.00
24962;BME280;12992;50.884;13.668;2024-03-02T07:06:23;96421.19;;;8.42;100.00
24962;BME280;12992;50.884;13.668;2024-03-02T07:08:49;96409.22;;;8.38;100.00
24962;BME280;12992;50.884;13.668;2024-03-02T07:11:15;96412.75;;;8.38;100.00
24962;BME280;12992;50.884;13.668;2024-03-02T07:13:40;96409.78;;;8.35;100.00
24962;BME280;12992;50.884;13.668;2024-03-02T07:16:05;96413.03;;;8.37;100.00
24962;BME280;12992;50.884;13.668;2024-03-02T07:18:49;96417.91;;;8.35;100.00
24962;BME280;12992;50.884;13.668;2024-03-02T07:21:17;96416.78;;;8.31;100.00
24962;BME280;12992;50.884;13.668;2024-03-02T07:23:42;96418.72;;;8.35;100.00
24962;BME280;12992;50.884;13.668;2024-03-02T07:26:07;96412.25;;;8.41;100.00
24962;BME280;12992;50.884;13.668;2024-03-02T07:28:33;96417.41;;;8.43;100.00
24962;BME280;12992;50.884;13.668;2024-03-02T07:31:03;96413.06;;;8.47;100.00
24962;BME280;12992;50.884;13.668;2024-03-02T07:33:29;96424.19;;;8.45;100.00
24962;BME280;12992;50.884;13.668;2024-03-02T07:35:55;96424.50;;;8.49;100.00
24962;BME280;12992;50.884;13.668;2024-03-02T07:38:21;96425.84;;;8.51;100.00
24962;BME280;12992;50.884;13.668;2024-03-02T07:40:47;96423.91;;;8.47;100.00
24962;BME280;12992;50.884;13.668;2024-03-02T07:43:16;96434.28;;;8.50;100.00
24962;BME280;12992;50.884;13.668;2024-03-02T07:45:41;96432.38;;;8.56;100.00
24962;BME280;12992;50.884;13.668;2024-03-02T07:48:07;96438.63;;;8.56;100.00
24962;BME280;12992;50.884;13.668;2024-03-02T07:50:32;96444.94;;;8.67;100.00
24962;BME280;12992;50.884;13.668;2024-03-02T07:53:00;96441.94;;;8.68;100.00
24962;BME280;12992;50.884;13.668;2024-03-02T07:55:25;96446.28;;;8.69;100.00
24962;BME280;12992;50.884;13.668;2024-03-02T07:57:51;96442.22;;;8.67;100.00
24962;BME280;12992;50.884;13.668;2024-03-02T08:00:16;96445.44;;;8.59;100.00
24962;BME280;12992;50.884;13.668;2024-03-02T08:02:42;96456.03;;;8.60;100.00
24962;BME280;12992;50.884;13.668;2024-03-02T08:05:07;96459.22;;;8.52;100.00
24962;BME280;12992;50.884;13.668;2024-03-02T08:07:33;96455.44;;;8.53;100.00
24962;BME280;12992;50.884;13.668;2024-03-02T08:09:58;96464.66;;;8.52;100.00
24962;BME280;12992;50.884;13.668;2024-03-02T08:12:24;96466.84;;;8.50;100.00
24962;BME280;12992;50.884;13.668;2024-03-02T08:14:49;96473.34;;;8.49;100.00
24962;BME280;12992;50.884;13.668;2024-03-02T08:17:14;96464.94;;;8.56;100.00
24962;BME280;12992;50.884;13.668;2024-03-02T08:19:40;96473.94;;;8.61;100.00
24962;BME280;12992;50.884;13.668;2024-03-02T08:22:06;96472.59;;;8.64;100.00
24962;BME280;12992;50.884;13.668;2024-03-02T08:24:32;96471.25;;;8.71;100.00
24962;BME280;12992;50.884;13.668;2024-03-02T08:26:59;96477.28;;;8.78;100.00
24962;BME280;12992;50.884;13.668;2024-03-02T08:29:24;96481.34;;;8.81;100.00
24962;BME280;12992;50.884;13.668;2024-03-02T08:31:50;96486.53;;;8.88;100.00
24962;BME280;12992;50.884;13.668;2024-03-02T08:34:15;96488.16;;;8.84;100.00
24962;BME280;12992;50.884;13.668;2024-03-02T08:36:41;96479.72;;;8.75;100.00
24962;BME280;12992;50.884;13.668;2024-03-02T08:39:07;96487.59;;;8.82;100.00
24962;BME280;12992;50.884;13.668;2024-03-02T08:41:44;96482.19;;;8.87;100.00
24962;BME280;12992;50.884;13.668;2024-03-02T08:44:09;96488.47;;;8.92;100.00
24962;BME280;12992;50.884;13.668;2024-03-02T08:46:35;96488.47;;;8.97;100.00
24962;BME280;12992;50.884;13.668;2024-03-02T08:49:01;96486.56;;;8.93;100.00
24962;BME280;12992;50.884;13.668;2024-03-02T08:51:26;96489.31;;;9.03;100.00
24962;BME280;12992;50.884;13.668;2024-03-02T08:53:52;96492.06;;;9.13;100.00
24962;BME280;12992;50.884;13.668;2024-03-02T08:56:17;96486.41;;;9.25;100.00
24962;BME280;12992;50.884;13.668;2024-03-02T08:58:43;96489.94;;;9.30;100.00
24962;BME280;12992;50.884;13.668;2024-03-02T09:01:09;96480.75;;;9.52;100.00
24962;BME280;12992;50.884;13.668;2024-03-02T09:03:34;96482.41;;;9.58;100.00
24962;BME280;12992;50.884;13.668;2024-03-02T09:06:00;96486.22;;;9.67;100.00
24962;BME280;12992;50.884;13.668;2024-03-02T09:08:25;96476.72;;;9.75;100.00
24962;BME280;12992;50.884;13.668;2024-03-02T09:10:51;96487.31;;;9.91;100.00
24962;BME280;12992;50.884;13.668;2024-03-02T09:13:17;96485.94;;;9.84;100.00
24962;BME280;12992;50.884;13.668;2024-03-02T09:15:42;96486.50;;;9.96;100.00
24962;BME280;12992;50.884;13.668;2024-03-02T09:18:07;96484.59;;;9.86;100.00
24962;BME280;12992;50.884;13.668;2024-03-02T09:20:33;96491.66;;;10.03;100.00
24962;BME280;12992;50.884;13.668;2024-03-02T09:22:58;96493.28;;;9.88;100.00
24962;BME280;12992;50.884;13.668;2024-03-02T09:25:23;96482.97;;;9.75;100.00
24962;BME280;12992;50.884;13.668;2024-03-02T09:27:49;96486.75;;;9.59;100.00
24962;BME280;12992;50.884;13.668;2024-03-02T09:30:14;96494.09;;;9.69;100.00
24962;BME280;12992;50.884;13.668;2024-03-02T09:32:39;96493.28;;;9.68;100.00
24962;BME280;12992;50.884;13.668;2024-03-02T09:35:05;96494.38;;;9.82;100.00
24962;BME280;12992;50.884;13.668;2024-03-02T09:37:31;96494.38;;;9.92;100.00
24962;BME280;12992;50.884;13.668;2024-03-02T09:39:56;96496.00;;;9.83;100.00
24962;BME280;12992;50.884;13.668;2024-03-02T09:42:22;96493.81;;;9.80;100.00
24962;BME280;12992;50.884;13.668;2024-03-02T09:44:48;96496.53;;;9.80;100.00
24962;BME280;12992;50.884;13.668;2024-03-02T09:47:13;96493.56;;;9.82;100.00
24962;BME280;12992;50.884;13.668;2024-03-02T09:49:39;96493.81;;;9.70;100.00
24962;BME280;12992;50.884;13.668;2024-03-02T09:52:05;96497.09;;;9.77;100.00
24962;BME280;12992;50.884;13.668;2024-03-02T09:54:32;96491.66;;;9.77;100.00
24962;BME280;12992;50.884;13.668;2024-03-02T09:56:57;96497.38;;;9.76;100.00
24962;BME280;12992;50.884;13.668;2024-03-02T09:59:22;96495.47;;;9.66;100.00
24962;BME280;12992;50.884;13.668;2024-03-02T10:02:01;96491.63;;;9.62;100.00
24962;BME280;12992;50.884;13.668;2024-03-02T10:04:28;96490.56;;;9.63;100.00
24962;BME280;12992;50.884;13.668;2024-03-02T10:07:16;96485.09;;;9.58;100.00
24962;BME280;12992;50.884;13.668;2024-03-02T10:09:43;96484.81;;;9.39;100.00
24962;BME280;12992;50.884;13.668;2024-03-02T10:12:10;96480.47;;;9.53;100.00
24962;BME280;12992;50.884;13.668;2024-03-02T10:14:37;96475.06;;;9.63;100.00
24962;BME280;12992;50.884;13.668;2024-03-02T10:17:03;96475.34;;;9.77;100.00
24962;BME280;12992;50.884;13.668;2024-03-02T10:19:29;96479.69;;;9.78;100.00
24962;BME280;12992;50.884;13.668;2024-03-02T10:21:58;96487.88;;;9.99;100.00
24962;BME280;12992;50.884;13.668;2024-03-02T10:24:24;96478.06;;;10.03;100.00
24962;BME280;12992;50.884;13.668;2024-03-02T10:26:51;96479.16;;;10.12;100.00
24962;BME280;12992;50.884;13.668;2024-03-02T10:29:16;96482.16;;;10.31;100.00
24962;BME280;12992;50.884;13.668;2024-03-02T10:31:44;96469.34;;;10.31;100.00
24962;BME280;12992;50.884;13.668;2024-03-02T10:34:13;96482.03;;;10.76;100.00
24962;BME280;12992;50.884;13.668;2024-03-02T10:36:43;96471.09;;;10.97;100.00
24962;BME280;12992;50.884;13.668;2024-03-02T10:39:09;96460.38;;;11.11;99.89
24962;BME280;12992;50.884;13.668;2024-03-02T10:41:38;96457.94;;;11.04;98.20
24962;BME280;12992;50.884;13.668;2024-03-02T10:44:05;96456.47;;;11.32;98.96
24962;BME280;12992;50.884;13.668;2024-03-02T10:46:33;96451.38;;;11.99;96.13
24962;BME280;12992;50.884;13.668;2024-03-02T10:49:00;96451.38;;;12.28;92.31
24962;BME280;12992;50.884;13.668;2024-03-02T10:51:29;96451.91;;;12.83;90.63
24962;BME280;12992;50.884;13.668;2024-03-02T10:53:58;96423.88;;;12.48;87.20
24962;BME280;12992;50.884;13.668;2024-03-02T10:56:31;96447.00;;;12.56;88.86
24962;BME280;12992;50.884;13.668;2024-03-02T11:01:43;96451.66;;;12.79;89.50
24962;BME280;12992;50.884;13.668;2024-03-02T11:04:09;96433.06;;;12.57;87.91
24962;BME280;12992;50.884;13.668;2024-03-02T11:06:35;96436.53;;;12.39;87.41
24962;BME280;12992;50.884;13.668;2024-03-02T11:09:06;96436.38;;;12.25;86.59
24962;BME280;12992;50.884;13.668;2024-03-02T11:11:36;96439.09;;;12.30;91.25
24962;BME280;12992;50.884;13.668;2024-03-02T11:14:04;96438.50;;;12.33;89.77
24962;BME280;12992;50.884;13.668;2024-03-02T11:16:38;96438.81;;;12.27;90.31
24962;BME280;12992;50.884;13.668;2024-03-02T11:19:05;96434.56;;;12.15;88.40
24962;BME280;12992;50.884;13.668;2024-03-02T11:21:35;96429.19;;;12.34;88.01
24962;BME280;12992;50.884;13.668;2024-03-02T11:24:08;96437.38;;;13.49;85.00
24962;BME280;12992;50.884;13.668;2024-03-02T11:26:46;96431.50;;;14.58;79.54
24962;BME280;12992;50.884;13.668;2024-03-02T11:32:04;96414.53;;;14.97;74.90
24962;BME280;12992;50.884;13.668;2024-03-02T11:34:36;96401.03;;;14.60;73.49
24962;BME280;12992;50.884;13.668;2024-03-02T11:37:02;96406.22;;;14.15;74.54
24962;BME280;12992;50.884;13.668;2024-03-02T11:39:28;96413.66;;;13.96;76.89
24962;BME280;12992;50.884;13.668;2024-03-02T11:41:54;96427.75;;;14.35;79.95
24962;BME280;12992;50.884;13.668;2024-03-02T11:44:20;96423.75;;;15.29;78.35
24962;BME280;12992;50.884;13.668;2024-03-02T11:46:51;96411.72;;;16.20;74.37
24962;BME280;12992;50.884;13.668;2024-03-02T11:49:35;96395.28;;;16.99;72.11
24962;BME280;12992;50.884;13.668;2024-03-02T11:52:01;96387.94;;;17.60;68.86
24962;BME280;12992;50.884;13.668;2024-03-02T11:54:30;96363.00;;;17.82;64.73
24962;BME280;12992;50.884;13.668;2024-03-02T11:56:58;96377.72;;;18.68;65.79
24962;BME280;12992;50.884;13.668;2024-03-02T11:59:26;96365.47;;;18.86;63.57
24962;BME280;12992;50.884;13.668;2024-03-02T12:01:51;96350.63;;;18.15;61.65
24962;BME280;12992;50.884;13.668;2024-03-02T12:04:18;96363.31;;;17.55;64.55
24962;BME280;12992;50.884;13.668;2024-03-02T12:06:43;96365.63;;;17.70;65.77
24962;BME280;12992;50.884;13.668;2024-03-02T12:09:09;96353.81;;;16.78;65.55
24962;BME280;12992;50.884;13.668;2024-03-02T12:11:36;96355.81;;;16.55;68.00
24962;BME280;12992;50.884;13.668;2024-03-02T12:14:02;96350.88;;;16.75;66.00
24962;BME280;12992;50.884;13.668;2024-03-02T12:16:28;96357.88;;;16.50;67.17
24962;BME280;12992;50.884;13.668;2024-03-02T12:18:54;96367.91;;;16.46;68.92
24962;BME280;12992;50.884;13.668;2024-03-02T12:21:19;96353.09;;;15.71;69.62
24962;BME280;12992;50.884;13.668;2024-03-02T12:23:44;96356.50;;;15.18;71.03
24962;BME280;12992;50.884;13.668;2024-03-02T12:26:10;96363.22;;;15.12;71.80
24962;BME280;12992;50.884;13.668;2024-03-02T12:28:35;96349.44;;;14.89;71.45
24962;BME280;12992;50.884;13.668;2024-03-02T12:31:00;96355.72;;;15.40;72.53
24962;BME280;12992;50.884;13.668;2024-03-02T12:33:26;96348.72;;;15.92;70.95
24962;BME280;12992;50.884;13.668;2024-03-02T12:35:52;96340.44;;;16.14;69.30
24962;BME280;12992;50.884;13.668;2024-03-02T12:38:17;96334.28;;;15.86;67.75
24962;BME280;12992;50.884;13.668;2024-03-02T12:40:43;96330.63;;;15.69;68.89
24962;BME280;12992;50.884;13.668;2024-03-02T12:43:08;96321.19;;;15.39;68.06
24962;BME280;12992;50.884;13.668;2024-03-02T12:45:34;96322.19;;;15.07;68.48
24962;BME280;12992;50.884;13.668;2024-03-02T12:48:00;96323.41;;;14.51;69.44
24962;BME280;12992;50.884;13.668;2024-03-02T12:50:26;96333.31;;;14.19;70.94
24962;BME280;12992;50.884;13.668;2024-03-02T12:52:55;96328.47;;;13.83;71.73